Time;durP1;ratioP1;P1;durP2;ratioP2;P2;SDS_P1;SDS_P2;PMS_P1;PMS_P2;Temp;Humidity;BMP_temperature;BMP_pressure;BME280_temperature;BME280_humidity;BME280_pressure;Samples;Min_cycle;Max_cycle;Signal;HPM_P1;HPM_P2
2023/07/03 00:01:46;;;;;;;12.00;5.70;;;;;;;14.33;68.61;99819.13;219187;1268;139810;-81
2023/07/03 00:06:48;;;;;;;12.50;5.60;;;;;;;14.31;69.90;99819.30;219779;1266;138184;-81
2023/07/03 00:11:49;;;;;;;13.30;5.80;;;;;;;14.27;70.41;99820.55;219165;1266;140213;-81
2023/07/03 00:16:50;;;;;;;17.70;6.10;;;;;;;14.22;69.41;99827.65;219438;1270;137930;-81
2023/07/03 00:21:50;;;;;;;17.10;6.90;;;;;;;14.17;68.83;99830.14;219074;1266;141439;-81
2023/07/03 00:26:51;;;;;;;19.40;6.90;;;;;;;14.14;68.86;99830.90;219752;1265;138478;-81
2023/07/03 00:31:51;;;;;;;16.20;6.50;;;;;;;14.13;68.85;99838.50;219115;1265;141763;-81
2023/07/03 00:36:52;;;;;;;15.10;6.20;;;;;;;14.14;69.05;99838.09;219581;1270;138635;-81
2023/07/03 00:41:52;;;;;;;17.50;6.90;;;;;;;14.14;69.24;99842.44;219273;1266;140499;-81
2023/07/03 00:46:53;;;;;;;14.50;6.30;;;;;;;14.11;69.16;99845.48;219872;1266;138839;-81
2023/07/03 00:51:55;;;;;;;13.60;6.50;;;;;;;14.09;69.49;99845.10;219163;1266;140251;-81
2023/07/03 00:56:56;;;;;;;17.80;7.70;;;;;;;14.07;69.51;99845.13;219797;1268;140109;-81
2023/07/03 01:02:25;;;;;;;15.70;6.70;;;;;;;14.06;69.66;99848.54;219272;1268;141868;-81
2023/07/03 01:07:32;;;;;;;14.80;6.40;;;;;;;14.06;70.77;99846.48;219676;1270;138837;-81
2023/07/03 01:12:38;;;;;;;19.20;7.40;;;;;;;14.03;69.91;99845.89;219070;1266;140101;-81
2023/07/03 01:17:40;;;;;;;18.60;7.20;;;;;;;14.01;70.09;99844.73;219590;1266;138795;-81
2023/07/03 01:23:04;;;;;;;19.80;7.10;;;;;;;13.97;70.11;99839.40;219083;1266;140748;-80
2023/07/03 01:28:08;;;;;;;14.30;6.60;;;;;;;13.94;70.76;99842.52;219544;1266;111502;-80
2023/07/03 01:33:14;;;;;;;14.00;6.00;;;;;;;13.92;70.91;99838.11;219043;1270;140939;-81
2023/07/03 01:38:17;;;;;;;19.00;7.90;;;;;;;13.90;71.04;99829.62;219567;1269;138469;-81
2023/07/03 01:43:18;;;;;;;18.60;7.30;;;;;;;13.85;71.11;99828.41;219229;1268;140144;-81
2023/07/03 01:48:19;;;;;;;17.40;6.50;;;;;;;13.81;71.09;99827.66;219738;1268;138630;-81
2023/07/03 01:53:27;;;;;;;17.50;7.30;;;;;;;13.77;71.15;99828.43;218902;1268;141488;-80
2023/07/03 01:58:38;;;;;;;17.00;7.30;;;;;;;13.73;71.26;99832.35;219929;1266;97988;-80
2023/07/03 02:03:48;;;;;;;17.70;7.20;;;;;;;13.69;71.49;99836.73;219316;1268;141038;-80
2023/07/03 02:08:51;;;;;;;15.60;7.50;;;;;;;13.64;71.62;99837.96;221622;1268;139233;-81
2023/07/03 02:13:52;;;;;;;18.60;7.80;;;;;;;13.61;71.73;99840.22;219455;1268;138641;-81
2023/07/03 02:18:55;;;;;;;16.70;6.90;;;;;;;13.56;71.88;99842.09;219010;1269;141352;-82
2023/07/03 02:23:55;;;;;;;17.60;7.30;;;;;;;13.52;72.47;99838.11;219548;1265;138698;-82
2023/07/03 02:28:56;;;;;;;17.20;7.30;;;;;;;13.49;72.52;99839.86;218939;1269;166209;-81
2023/07/03 02:33:56;;;;;;;19.30;7.30;;;;;;;13.43;72.65;99839.61;219455;1270;97871;-82
2023/07/03 02:38:57;;;;;;;15.30;7.20;;;;;;;13.38;72.85;99844.33;218898;1265;140894;-82
2023/07/03 02:43:58;;;;;;;18.20;7.00;;;;;;;13.34;73.50;99844.83;219659;1266;139455;-82
2023/07/03 02:48:58;;;;;;;15.90;6.30;;;;;;;13.28;73.68;99847.80;218916;1270;140952;-82
2023/07/03 02:53:59;;;;;;;14.40;6.70;;;;;;;13.23;74.11;99841.77;219739;1268;140065;-82
2023/07/03 02:58:59;;;;;;;15.30;6.70;;;;;;;13.20;74.52;99835.80;218815;1266;141928;-82
2023/07/03 03:04:00;;;;;;;17.10;7.40;;;;;;;13.17;74.06;99834.09;219629;1271;97945;-82
2023/07/03 03:09:00;;;;;;;15.60;6.60;;;;;;;13.11;74.12;99835.80;218928;1269;140993;-82
2023/07/03 03:14:00;;;;;;;17.30;7.50;;;;;;;13.11;74.11;99837.30;219653;1268;139140;-82
2023/07/03 03:19:01;;;;;;;16.70;7.50;;;;;;;13.09;74.45;99836.84;218971;1265;140640;-82
2023/07/03 03:24:02;;;;;;;15.50;6.90;;;;;;;13.09;74.41;99839.45;219464;1266;138746;-82
2023/07/03 03:29:02;;;;;;;15.20;6.80;;;;;;;13.12;74.59;99843.06;218788;1265;140460;-82
2023/07/03 03:34:03;;;;;;;15.90;7.00;;;;;;;13.17;74.77;99842.21;219521;1269;99308;-81
2023/07/03 03:39:03;;;;;;;13.80;6.10;;;;;;;13.17;74.74;99838.74;218969;1265;139245;-81
2023/07/03 03:44:04;;;;;;;19.50;7.50;;;;;;;13.19;74.73;99837.46;219632;1265;138913;-82
2023/07/03 03:49:04;;;;;;;17.20;7.50;;;;;;;13.23;74.86;99843.98;219160;1266;140150;-81
2023/07/03 03:54:05;;;;;;;18.80;7.70;;;;;;;13.31;75.01;99846.05;219562;1268;138691;-82
2023/07/03 03:59:06;;;;;;;21.20;7.30;;;;;;;13.41;75.08;99840.98;219262;1266;142024;-82
2023/07/03 04:04:07;;;;;;;15.00;7.60;;;;;;;13.53;75.01;99837.85;219601;1266;98063;-81
2023/07/03 04:09:07;;;;;;;19.10;8.00;;;;;;;13.66;75.03;99839.92;218984;1266;141254;-80
2023/07/03 04:14:08;;;;;;;15.90;7.50;;;;;;;13.81;74.92;99835.56;219802;1266;139120;-81
2023/07/03 04:19:09;;;;;;;14.70;6.90;;;;;;;13.97;74.58;99836.71;219039;1266;140624;-81
2023/07/03 04:24:09;;;;;;;17.10;7.80;;;;;;;14.14;74.69;99828.61;219799;1268;138811;-81
2023/07/03 04:29:10;;;;;;;18.60;8.00;;;;;;;14.31;74.41;99825.88;219151;1266;141589;-82
2023/07/03 04:34:10;;;;;;;16.50;7.80;;;;;;;14.48;74.24;99821.52;219785;1266;99293;-81
2023/07/03 04:39:11;;;;;;;15.90;7.40;;;;;;;14.66;73.92;99825.05;219030;1267;141650;-81
2023/07/03 04:44:14;;;;;;;18.70;7.70;;;;;;;14.80;73.54;99820.95;219405;1268;139253;-81
2023/07/03 04:49:15;;;;;;;17.30;8.10;;;;;;;14.92;73.42;99820.36;218897;1271;140366;-80
2023/07/03 04:54:15;;;;;;;19.90;8.00;;;;;;;15.04;73.35;99818.41;219509;1269;138757;-81
2023/07/03 04:59:16;;;;;;;17.00;7.90;;;;;;;15.16;73.26;99831.36;219149;1267;140523;-82
2023/07/03 05:04:16;;;;;;;15.70;7.60;;;;;;;15.29;72.97;99831.39;219997;1266;97944;-80
2023/07/03 05:09:17;;;;;;;22.70;8.20;;;;;;;15.43;72.76;99826.80;219053;1269;141182;-81
2023/07/03 05:14:17;;;;;;;15.90;8.50;;;;;;;15.59;72.47;99821.89;219398;1268;138525;-82
2023/07/03 05:19:18;;;;;;;15.80;7.90;;;;;;;15.85;72.34;99823.39;218875;1270;141227;-81
2023/07/03 05:24:18;;;;;;;18.20;8.70;;;;;;;16.23;71.56;99816.09;219456;1270;139277;-81
2023/07/03 05:29:19;;;;;;;19.50;8.10;;;;;;;16.62;71.23;99813.95;218937;1265;140579;-81
2023/07/03 05:34:19;;;;;;;20.20;8.40;;;;;;;17.13;69.78;99820.80;219548;1269;97972;-81
2023/07/03 05:39:20;;;;;;;14.90;6.60;;;;;;;17.63;68.72;99824.05;218859;1267;140758;-81
2023/07/03 05:44:20;;;;;;;18.80;7.30;;;;;;;18.22;66.70;99816.17;219637;1268;138517;-81
2023/07/03 05:49:21;;;;;;;15.90;6.70;;;;;;;18.77;64.99;99815.60;219137;1269;140186;-82
2023/07/03 05:54:21;;;;;;;16.50;7.40;;;;;;;19.37;63.91;99815.04;219656;1269;138955;-82
2023/07/03 05:59:23;;;;;;;17.50;7.30;;;;;;;20.06;62.60;99821.02;219041;1267;139838;-81
2023/07/03 06:04:23;;;;;;;18.00;7.30;;;;;;;20.50;59.45;99820.23;219585;1270;98003;-81
2023/07/03 06:09:25;;;;;;;17.40;6.70;;;;;;;20.70;58.05;99808.16;218924;1266;139601;-81
2023/07/03 06:14:26;;;;;;;16.20;7.30;;;;;;;20.92;56.87;99805.53;219541;1271;138627;-81
2023/07/03 06:19:27;;;;;;;14.80;7.00;;;;;;;21.01;56.29;99811.84;218854;1270;139534;-81
2023/07/03 06:24:28;;;;;;;20.20;8.10;;;;;;;20.97;55.54;99816.21;219423;1270;138485;-81
2023/07/03 06:29:28;;;;;;;23.60;7.80;;;;;;;20.90;55.80;99824.63;218919;1270;140254;-81
2023/07/03 06:34:29;;;;;;;16.50;6.90;;;;;;;20.87;56.22;99844.57;219897;1270;97962;-82
2023/07/03 06:39:29;;;;;;;16.50;7.00;;;;;;;20.81;56.39;99851.13;218877;1267;139922;-81
2023/07/03 06:44:30;;;;;;;16.60;7.40;;;;;;;20.70;56.46;99856.45;219497;1267;137903;-81
2023/07/03 06:49:30;;;;;;;23.00;8.20;;;;;;;20.54;56.92;99858.90;218800;1270;140510;-82
2023/07/03 06:54:31;;;;;;;16.60;7.00;;;;;;;20.39;56.82;99857.48;219862;1267;138112;-81
2023/07/03 06:59:32;;;;;;;17.70;7.30;;;;;;;20.27;56.58;99855.39;219181;1267;140485;-81
2023/07/03 07:04:33;;;;;;;17.50;7.80;;;;;;;20.23;56.89;99849.95;220036;1267;98840;-81
2023/07/03 07:09:34;;;;;;;15.40;7.80;;;;;;;20.10;56.75;99851.69;219159;1267;141227;-82
2023/07/03 07:14:35;;;;;;;14.80;7.60;;;;;;;19.93;57.00;99848.94;219735;1269;137993;-84
2023/07/03 07:19:36;;;;;;;20.40;8.00;;;;;;;19.86;57.42;99841.23;219206;1266;140091;-84
2023/07/03 07:24:36;;;;;;;17.90;7.40;;;;;;;19.86;57.68;99837.65;219903;1269;139828;-87
2023/07/03 07:29:39;;;;;;;17.50;8.20;;;;;;;19.94;58.11;99836.21;219313;1270;141293;-85
2023/07/03 07:34:40;;;;;;;17.60;9.10;;;;;;;20.01;57.88;99832.80;219858;1269;137989;-87
2023/07/03 07:39:44;;;;;;;24.10;9.20;;;;;;;20.07;57.73;99824.98;219325;1267;141147;-85
2023/07/03 07:44:48;;;;;;;18.40;8.90;;;;;;;20.23;58.15;99819.69;219739;1270;137926;-88
2023/07/03 07:49:48;;;;;;;20.20;8.80;;;;;;;20.38;57.25;99817.42;219065;1265;139486;-84
2023/07/03 07:54:54;;;;;;;23.70;9.10;;;;;;;20.51;57.24;99813.64;219637;1267;138111;-86
2023/07/03 07:59:55;;;;;;;17.30;8.60;;;;;;;20.69;56.98;99809.67;219177;1267;139023;-85
2023/07/03 08:04:56;;;;;;;18.20;9.50;;;;;;;20.76;56.58;99806.25;219547;1267;138844;-84
2023/07/03 08:09:56;;;;;;;19.90;8.90;;;;;;;20.93;56.83;99808.94;219418;1267;140618;-85
2023/07/03 08:14:57;;;;;;;19.30;9.70;;;;;;;21.29;56.85;99805.52;219856;1267;138551;-84
2023/07/03 08:19:57;;;;;;;19.60;8.70;;;;;;;21.68;55.65;99807.59;219151;1268;140489;-87
2023/07/03 08:24:58;;;;;;;20.20;9.80;;;;;;;22.02;53.92;99810.85;219659;1267;138203;-84
2023/07/03 08:29:58;;;;;;;17.20;8.10;;;;;;;22.29;53.32;99798.67;219274;1265;141834;-84
2023/07/03 08:34:59;;;;;;;17.20;9.10;;;;;;;22.88;53.16;99783.16;219757;1267;137994;-85
2023/07/03 08:40:00;;;;;;;18.40;8.90;;;;;;;23.37;52.27;99775.64;219536;1267;141920;-85
2023/07/03 08:45:01;;;;;;;18.20;9.60;;;;;;;23.83;51.05;99773.55;220048;1265;138786;-85
2023/07/03 08:50:03;;;;;;;24.80;8.90;;;;;;;23.98;48.52;99778.61;219390;1267;141263;-85
2023/07/03 08:55:06;;;;;;;17.40;8.10;;;;;;;23.80;47.35;99782.70;219781;1267;138073;-83
2023/07/03 09:05:29;;;;;;;17.60;9.10;;;;;;;24.01;47.26;99778.20;220136;1270;137963;-85
2023/07/03 09:10:37;;;;;;;24.50;10.10;;;;;;;24.17;47.04;99780.48;223278;1266;140412;-86
2023/07/03 09:15:48;;;;;;;16.10;9.40;;;;;;;24.61;47.16;99779.50;220118;1266;111089;-84
2023/07/03 09:20:49;;;;;;;23.40;11.20;;;;;;;25.16;46.62;99783.26;219209;1265;140298;-84
2023/07/03 09:25:57;;;;;;;21.50;10.30;;;;;;;25.47;45.54;99777.45;220115;1265;138086;-85
2023/07/03 09:30:57;;;;;;;19.00;9.40;;;;;;;25.90;46.05;99769.70;219682;1269;153613;-85
2023/07/03 09:36:19;;;;;;;18.30;10.70;;;;;;;26.60;45.09;99768.57;219804;1267;138561;-84
2023/07/03 09:41:27;;;;;;;25.80;11.40;;;;;;;27.11;43.96;99771.13;219416;1266;140105;-86
2023/07/03 09:46:29;;;;;;;22.10;12.20;;;;;;;27.55;43.89;99774.55;220307;1265;99072;-85
2023/07/03 09:51:30;;;;;;;22.80;12.00;;;;;;;28.11;42.47;99773.39;219659;1270;142156;-88
2023/07/03 09:56:31;;;;;;;18.30;10.60;;;;;;;28.04;41.95;99774.27;220270;1267;138001;-86
2023/07/03 10:01:37;;;;;;;23.00;12.20;;;;;;;28.20;40.94;99773.77;219576;1268;141381;-84
2023/07/03 10:06:39;;;;;;;20.50;10.90;;;;;;;28.13;41.01;99761.88;220614;1265;138864;-84
2023/07/03 10:11:46;;;;;;;21.30;13.00;;;;;;;27.81;40.74;99765.25;219886;1265;140547;-85
2023/07/03 10:16:48;;;;;;;23.20;11.60;;;;;;;28.15;40.93;99761.71;220308;1268;138518;-85
2023/07/03 10:21:51;;;;;;;21.70;10.70;;;;;;;28.41;40.38;99755.69;219851;1265;139389;-83
2023/07/03 10:26:57;;;;;;;20.40;10.20;;;;;;;28.64;40.62;99755.78;220062;1268;138717;-84
2023/07/03 10:32:14;;;;;;;21.90;11.60;;;;;;;28.45;39.55;99760.83;222324;1265;140017;-86
2023/07/03 10:37:19;;;;;;;21.90;10.70;;;;;;;28.02;39.64;99760.88;222271;1265;230655;-85
2023/07/03 10:42:34;;;;;;;21.80;11.00;;;;;;;27.71;40.69;99768.17;219328;1265;140428;-86
2023/07/03 10:47:46;;;;;;;21.80;10.50;;;;;;;27.71;40.60;99769.56;219865;1267;138715;-84
2023/07/03 10:52:59;;;;;;;20.20;10.40;;;;;;;27.78;42.38;99765.29;219365;1265;141047;-88
2023/07/03 10:58:41;;;;;;;44.80;11.60;;;;;;;27.93;41.63;99776.29;220222;1265;112519;-87
2023/07/03 11:04:00;;;;;;;21.20;11.20;;;;;;;27.65;40.84;99786.00;219431;1265;139958;-85
2023/07/03 11:09:33;;;;;;;19.10;11.50;;;;;;;27.36;41.22;99785.00;219622;1268;140174;-86
2023/07/03 11:15:05;;;;;;;19.50;10.80;;;;;;;27.14;41.54;99778.77;220104;1268;138198;-86
2023/07/03 11:20:18;;;;;;;22.00;11.60;;;;;;;27.05;42.02;99787.02;219697;1268;141998;-85
2023/07/03 11:25:29;;;;;;;18.30;10.40;;;;;;;27.07;41.69;99784.66;220466;1265;138334;-85
2023/07/03 11:30:32;;;;;;;22.20;10.60;;;;;;;27.06;41.85;99780.40;219894;1265;140573;-87
2023/07/03 11:35:34;;;;;;;21.50;11.40;;;;;;;27.02;41.69;99778.16;220598;1265;138086;-85
2023/07/03 11:40:57;;;;;;;20.90;10.10;;;;;;;27.20;42.16;99770.21;220260;1265;141550;-86
2023/07/03 11:45:58;;;;;;;18.70;9.80;;;;;;;27.36;41.49;99767.73;220707;1265;98865;-88
2023/07/03 11:51:07;;;;;;;20.50;10.40;;;;;;;27.36;41.16;99768.25;219789;1266;140502;-83
2023/07/03 11:56:13;;;;;;;22.90;10.80;;;;;;;26.99;40.68;99766.34;220352;1266;137996;-84
2023/07/03 12:01:30;;;;;;;25.50;10.20;;;;;;;26.59;41.05;99780.94;220108;1265;139657;-85
2023/07/03 12:06:40;;;;;;;18.20;10.00;;;;;;;26.35;42.33;99784.61;220514;1266;138095;-87
2023/07/03 12:12:15;;;;;;;17.50;9.70;;;;;;;26.29;42.70;99789.17;219964;1266;140131;-86
2023/07/03 12:17:29;;;;;;;24.30;10.60;;;;;;;26.37;43.78;99783.61;220412;1265;138478;-87
2023/07/03 12:22:30;;;;;;;20.10;10.30;;;;;;;26.65;43.56;99781.66;220097;1264;140189;-86
2023/07/03 12:27:31;;;;;;;22.30;9.60;;;;;;;26.73;43.29;99785.21;220550;1265;138355;-83
2023/07/03 12:32:34;;;;;;;20.20;10.30;;;;;;;26.80;43.05;99789.67;220052;1266;142012;-86
2023/07/03 12:37:35;;;;;;;21.70;11.30;;;;;;;26.55;43.06;99801.89;220337;1268;138656;-88
2023/07/03 12:42:35;;;;;;;19.80;10.00;;;;;;;26.32;43.49;99808.45;220141;1265;139923;-83
2023/07/03 12:47:36;;;;;;;23.10;10.70;;;;;;;26.36;43.38;99805.14;220448;1266;138432;-85
2023/07/03 12:52:36;;;;;;;25.10;10.20;;;;;;;26.43;42.52;99809.63;220019;1269;141012;-84
2023/07/03 12:57:37;;;;;;;23.60;10.80;;;;;;;26.60;42.77;99802.09;220528;1266;138665;-85
2023/07/03 13:02:38;;;;;;;19.50;9.00;;;;;;;26.70;40.91;99798.29;220118;1265;141284;-84
2023/07/03 13:07:43;;;;;;;24.20;8.10;;;;;;;26.70;39.07;99804.73;220419;1269;138588;-84
2023/07/03 13:12:45;;;;;;;18.90;7.50;;;;;;;26.62;38.34;99802.84;220002;1265;140127;-88
2023/07/03 13:17:45;;;;;;;18.10;8.10;;;;;;;26.75;37.88;99798.45;220813;1265;138510;-83
2023/07/03 13:22:52;;;;;;;15.70;7.30;;;;;;;26.76;39.03;99800.42;220710;1266;139586;-85
2023/07/03 13:27:53;;;;;;;16.10;7.50;;;;;;;26.77;39.33;99809.20;221002;1265;97860;-84
2023/07/03 13:32:57;;;;;;;19.70;6.30;;;;;;;26.79;38.95;99805.79;220340;1266;149366;-84
2023/07/03 13:38:13;;;;;;;17.80;6.00;;;;;;;26.59;37.09;99801.73;223585;1265;138016;-83
2023/07/03 13:43:20;;;;;;;14.60;5.20;;;;;;;26.48;36.78;99806.54;222001;1265;142028;-84
2023/07/03 13:48:21;;;;;;;16.20;5.70;;;;;;;26.40;36.98;99808.89;220513;1266;138163;-86
2023/07/03 13:53:24;;;;;;;14.00;5.00;;;;;;;26.09;35.71;99808.79;220116;1265;140380;-86
2023/07/03 13:58:25;;;;;;;10.80;4.60;;;;;;;25.92;36.41;99804.70;220749;1266;98030;-86
2023/07/03 14:03:25;;;;;;;16.20;5.20;;;;;;;25.91;35.99;99802.11;220153;1270;140903;-85
2023/07/03 14:08:28;;;;;;;12.30;4.20;;;;;;;25.85;34.94;99811.01;220662;1265;139334;-85
2023/07/03 14:13:29;;;;;;;17.20;4.70;;;;;;;25.74;36.15;99813.34;219663;1266;140763;-85
2023/07/03 14:18:30;;;;;;;14.60;4.30;;;;;;;25.85;35.52;99816.38;220431;1266;138174;-85
2023/07/03 14:23:31;;;;;;;14.90;5.00;;;;;;;25.73;35.62;99821.88;219609;1265;139785;-86
2023/07/03 14:28:31;;;;;;;19.10;5.70;;;;;;;25.66;35.62;99822.97;220060;1265;105034;-85
2023/07/03 14:33:32;;;;;;;13.40;4.20;;;;;;;25.55;35.12;99830.88;219674;1266;139721;-85
2023/07/03 14:38:32;;;;;;;11.10;4.10;;;;;;;25.51;35.65;99838.17;220376;1269;138659;-87
2023/07/03 14:43:33;;;;;;;14.80;4.50;;;;;;;25.59;35.71;99831.54;219805;1265;140841;-86
2023/07/03 14:48:34;;;;;;;11.30;4.70;;;;;;;25.56;36.13;99835.56;220181;1266;138390;-87
2023/07/03 14:53:34;;;;;;;15.80;5.40;;;;;;;25.51;35.96;99844.09;219737;1266;139488;-84
2023/07/03 14:58:34;;;;;;;13.30;4.70;;;;;;;25.32;36.42;99849.15;220313;1266;98072;-87
2023/07/03 15:03:35;;;;;;;14.20;5.40;;;;;;;25.18;36.92;99854.83;219725;1266;139936;-86
2023/07/03 15:08:35;;;;;;;15.00;5.10;;;;;;;25.20;37.49;99854.23;220123;1266;138469;-90
2023/07/03 15:13:36;;;;;;;15.70;4.80;;;;;;;25.13;38.08;99859.71;219624;1268;139644;-86
2023/07/03 15:18:36;;;;;;;15.60;5.10;;;;;;;25.06;38.52;99869.84;220253;1265;138168;-87
2023/07/03 15:23:36;;;;;;;14.40;5.10;;;;;;;25.02;39.21;99870.09;219695;1269;140533;-83
2023/07/03 15:28:37;;;;;;;32.30;8.00;;;;;;;24.97;39.80;99867.88;220744;1265;98017;-86
2023/07/03 15:33:37;;;;;;;29.50;7.20;;;;;;;25.01;40.09;99867.37;220130;1268;140821;-88
2023/07/03 15:38:38;;;;;;;15.30;6.20;;;;;;;25.04;40.28;99869.55;220535;1265;137948;-89
2023/07/03 15:43:38;;;;;;;13.70;4.80;;;;;;;24.97;39.64;99874.02;219817;1266;139962;-87
2023/07/03 15:48:39;;;;;;;15.00;5.70;;;;;;;24.92;40.01;99872.75;220547;1270;138335;-89
2023/07/03 15:53:41;;;;;;;13.10;5.10;;;;;;;24.80;39.16;99879.77;220247;1268;139893;-84
2023/07/03 15:58:43;;;;;;;18.70;6.10;;;;;;;24.57;38.91;99881.95;220648;1270;99210;-88
2023/07/03 16:03:45;;;;;;;12.20;5.00;;;;;;;24.41;39.70;99888.61;219932;1265;141161;-90
2023/07/03 16:08:45;;;;;;;15.00;6.10;;;;;;;24.26;40.76;99887.55;220664;1268;138055;-89
2023/07/03 16:13:47;;;;;;;12.40;4.80;;;;;;;24.16;40.62;99889.13;219823;1265;140093;-89
2023/07/03 16:18:49;;;;;;;15.00;5.10;;;;;;;23.94;40.21;99893.16;220333;1265;138084;-89
2023/07/03 16:23:52;;;;;;;14.60;5.10;;;;;;;23.82;40.82;99889.77;219920;1266;139190;-90
2023/07/03 16:28:54;;;;;;;15.40;5.30;;;;;;;23.72;41.83;99897.75;220035;1264;140016;-86
2023/07/03 16:33:57;;;;;;;12.60;4.70;;;;;;;23.63;40.72;99901.42;220418;1268;137490;-91
2023/07/03 16:39:01;;;;;;;13.40;4.80;;;;;;;23.47;40.63;99903.27;219924;1266;140268;-89
2023/07/03 16:44:02;;;;;;;14.80;5.00;;;;;;;23.35;40.31;99900.75;220788;1268;138719;-87
2023/07/03 16:49:03;;;;;;;16.70;6.10;;;;;;;23.22;41.12;99907.73;220503;1268;139741;-88
2023/07/03 16:54:05;;;;;;;11.10;4.50;;;;;;;23.09;41.38;99907.70;220760;1268;138799;-91
2023/07/03 16:59:06;;;;;;;11.70;5.10;;;;;;;22.96;42.02;99903.46;219395;1265;140241;-89
2023/07/03 17:04:07;;;;;;;13.20;4.80;;;;;;;22.83;42.42;99902.38;220016;1266;98024;-90
2023/07/03 17:09:07;;;;;;;14.10;4.90;;;;;;;22.65;42.48;99904.00;219267;1265;140686;-93
2023/07/03 17:14:07;;;;;;;10.70;4.10;;;;;;;22.46;41.84;99902.67;220134;1266;137955;-94
2023/07/03 17:19:08;;;;;;;13.10;4.30;;;;;;;22.28;42.30;99906.25;219863;1270;140269;-90
2023/07/03 17:24:08;;;;;;;15.30;5.60;;;;;;;22.12;42.00;99907.15;220582;1265;138073;-92
2023/07/03 17:29:09;;;;;;;12.40;4.20;;;;;;;22.00;42.01;99911.21;219486;1265;140674;-91
2023/07/03 17:34:09;;;;;;;12.70;4.60;;;;;;;21.89;43.05;99905.14;220412;1266;97968;-91
2023/07/03 17:39:11;;;;;;;12.60;4.80;;;;;;;21.78;43.60;99906.72;219754;1268;139930;-91
2023/07/03 17:44:12;;;;;;;9.60;3.80;;;;;;;21.69;43.74;99913.04;220195;1270;138009;-91
2023/07/03 17:49:13;;;;;;;9.70;4.20;;;;;;;21.58;44.30;99910.58;219783;1270;140417;-92
2023/07/03 17:54:13;;;;;;;12.70;4.40;;;;;;;21.50;44.63;99904.61;220077;1268;137726;-91
2023/07/03 17:59:14;;;;;;;10.40;4.00;;;;;;;21.39;45.76;99909.77;219718;1266;141244;-94
2023/07/03 18:04:14;;;;;;;12.40;4.10;;;;;;;21.28;46.34;99913.14;220175;1266;98721;-91
2023/07/03 18:09:15;;;;;;;9.30;4.10;;;;;;;21.16;47.11;99912.34;219407;1266;139707;-91
2023/07/03 18:14:16;;;;;;;11.60;4.50;;;;;;;21.03;47.33;99917.52;220156;1265;137928;-93
2023/07/03 18:19:16;;;;;;;11.30;3.90;;;;;;;20.86;47.70;99911.66;219474;1270;161623;-93
2023/07/03 18:24:17;;;;;;;12.50;4.60;;;;;;;20.74;48.40;99916.52;220157;1266;137918;-91
2023/07/03 18:29:17;;;;;;;12.90;4.80;;;;;;;20.61;49.40;99920.65;219673;1271;140739;-91
2023/07/03 18:34:18;;;;;;;12.00;4.40;;;;;;;20.48;50.66;99924.13;220115;1266;97963;-91
2023/07/03 18:39:18;;;;;;;10.30;4.00;;;;;;;20.36;51.26;99922.93;219544;1266;140284;-92
2023/07/03 18:44:19;;;;;;;10.00;4.00;;;;;;;20.19;52.07;99925.15;220125;1269;138052;-91
2023/07/03 18:49:19;;;;;;;12.50;4.50;;;;;;;20.05;52.72;99930.09;219839;1265;140082;-93
2023/07/03 18:54:21;;;;;;;10.50;3.80;;;;;;;19.95;53.37;99929.56;220362;1268;137978;-92
2023/07/03 18:59:22;;;;;;;10.40;4.00;;;;;;;19.82;53.92;99934.73;220466;1266;141630;-92
2023/07/03 19:04:23;;;;;;;9.40;4.50;;;;;;;19.71;54.35;99939.80;220519;1269;108549;-93
2023/07/03 19:09:23;;;;;;;12.90;4.90;;;;;;;19.59;55.38;99946.30;219779;1266;140142;-93
2023/07/03 19:14:24;;;;;;;12.10;4.80;;;;;;;19.50;56.18;99954.23;220115;1265;137959;-92
2023/07/03 19:19:24;;;;;;;10.90;4.80;;;;;;;19.39;57.03;99956.83;220084;1268;141534;-91
2023/07/03 19:24:25;;;;;;;12.50;4.90;;;;;;;19.26;57.63;99960.76;220515;1266;138442;-92
2023/07/03 19:29:25;;;;;;;10.40;4.70;;;;;;;19.14;58.12;99962.31;219781;1268;140636;-93
2023/07/03 19:34:26;;;;;;;11.80;5.10;;;;;;;19.00;58.72;99971.34;220386;1266;97963;-92
2023/07/03 19:39:26;;;;;;;16.60;6.00;;;;;;;18.88;58.88;99980.07;219552;1268;139601;-89
2023/07/03 19:44:28;;;;;;;13.40;5.70;;;;;;;18.74;59.92;99990.27;220249;1265;138342;-90
2023/07/03 19:49:30;;;;;;;12.60;5.50;;;;;;;18.56;60.37;99985.31;219417;1266;139257;-89
2023/07/03 19:54:30;;;;;;;11.60;4.60;;;;;;;18.38;60.49;99989.80;219924;1265;137969;-89
2023/07/03 19:59:31;;;;;;;10.40;4.10;;;;;;;18.24;61.00;100003.21;219818;1268;140464;-88
2023/07/03 20:04:31;;;;;;;13.40;5.50;;;;;;;18.08;61.22;100007.86;220484;1266;99212;-87
2023/07/03 20:09:32;;;;;;;12.10;5.30;;;;;;;17.95;62.32;100014.09;219897;1266;141413;-90
2023/07/03 20:14:32;;;;;;;12.40;4.70;;;;;;;17.81;62.35;100022.64;220261;1267;137967;-87
2023/07/03 20:19:33;;;;;;;14.50;4.70;;;;;;;17.68;62.89;100024.05;219397;1271;140083;-88
2023/07/03 20:24:34;;;;;;;11.90;4.70;;;;;;;17.58;63.06;100023.99;219882;1269;138815;-88
2023/07/03 20:29:35;;;;;;;11.70;4.50;;;;;;;17.47;63.49;100023.05;219295;1268;141870;-88
2023/07/03 20:34:35;;;;;;;10.90;4.20;;;;;;;17.35;64.13;100029.75;221099;1268;97917;-88
2023/07/03 20:39:36;;;;;;;13.50;4.90;;;;;;;17.21;64.79;100027.92;219387;1266;140538;-88
2023/07/03 20:44:37;;;;;;;13.10;4.50;;;;;;;17.06;65.34;100033.25;220281;1266;138603;-90
2023/07/03 20:49:38;;;;;;;10.20;3.90;;;;;;;16.91;65.81;100032.92;219317;1271;139834;-87
2023/07/03 20:54:43;;;;;;;9.20;4.20;;;;;;;16.79;66.08;100040.82;220107;1269;138295;-86
2023/07/03 20:59:47;;;;;;;8.70;4.00;;;;;;;16.66;66.68;100036.95;219251;1270;140034;-87
2023/07/03 21:04:48;;;;;;;10.80;4.70;;;;;;;16.55;66.81;100041.35;220000;1266;97949;-88
2023/07/03 21:09:49;;;;;;;14.60;4.70;;;;;;;16.44;67.56;100042.45;219444;1266;140162;-88
2023/07/03 21:14:49;;;;;;;15.40;4.70;;;;;;;16.33;67.76;100039.77;219811;1268;137914;-86
2023/07/03 21:19:51;;;;;;;13.60;4.00;;;;;;;16.21;68.19;100039.44;219546;1269;140071;-83
2023/07/03 21:24:52;;;;;;;11.40;4.50;;;;;;;16.07;68.57;100034.92;220625;1266;138711;-83
2023/07/03 21:29:52;;;;;;;11.70;4.10;;;;;;;15.96;68.66;100041.06;219544;1268;140761;-83
2023/07/03 21:34:53;;;;;;;13.20;5.00;;;;;;;15.84;68.84;100041.74;219956;1266;97961;-84
2023/07/03 21:39:53;;;;;;;10.60;4.40;;;;;;;15.72;69.04;100043.52;219576;1269;139763;-84
2023/07/03 21:44:54;;;;;;;10.30;3.80;;;;;;;15.63;68.97;100043.44;219991;1266;138609;-83
2023/07/03 21:49:54;;;;;;;9.50;3.90;;;;;;;15.52;69.54;100045.66;219663;1265;141059;-83
2023/07/03 21:54:54;;;;;;;9.70;3.70;;;;;;;15.41;69.65;100043.52;220736;1266;138545;-83
2023/07/03 21:59:55;;;;;;;11.00;4.40;;;;;;;15.31;70.13;100042.95;219969;1266;140447;-83
2023/07/03 22:04:55;;;;;;;8.90;4.40;;;;;;;15.23;70.30;100046.53;220374;1266;138144;-83
2023/07/03 22:09:56;;;;;;;10.50;4.00;;;;;;;15.14;70.64;100046.42;219573;1268;140990;-82
2023/07/03 22:14:56;;;;;;;12.10;4.20;;;;;;;15.08;70.54;100044.50;220036;1266;139284;-83
2023/07/03 22:19:57;;;;;;;10.20;3.80;;;;;;;15.03;70.85;100048.45;219426;1268;140894;-82
2023/07/03 22:24:57;;;;;;;12.50;3.90;;;;;;;14.96;70.89;100052.52;220067;1268;138822;-82
2023/07/03 22:29:58;;;;;;;10.10;4.00;;;;;;;14.90;71.32;100048.87;219609;1267;141560;-83
2023/07/03 22:34:58;;;;;;;10.00;3.70;;;;;;;14.85;71.28;100047.42;220003;1268;138759;-82
2023/07/03 22:40:00;;;;;;;9.50;3.60;;;;;;;14.79;72.20;100051.05;219267;1269;320878;-83
2023/07/03 22:45:00;;;;;;;14.80;4.70;;;;;;;14.72;72.28;100046.80;220065;1268;139052;-83
2023/07/03 22:50:02;;;;;;;9.80;3.80;;;;;;;14.63;72.33;100045.48;219250;1266;140927;-83
2023/07/03 22:55:06;;;;;;;10.00;4.30;;;;;;;14.55;72.77;100043.17;219923;1268;138561;-83
2023/07/03 23:00:10;;;;;;;9.70;4.40;;;;;;;14.48;73.09;100046.11;219470;1266;141680;-83